This is the latest recevied weather packets stored in our database for station/object KD0KHX-10. If no packets are shown the sender has not sent any weather packets the latest 10 day(s).
| Time | Temp. | Humidity | Pressure | Rain* | Wind** | Luminosity | Snow |
|---|---|---|---|---|---|---|---|
| 1777831172 | 24.44° C | 22% | 1006.6 hPa | 0 mm | - | - | - |
| 1777828038 | 23.33° C | 24% | 1007.4 hPa | 0 mm | - | - | - |
| 1777825937 | 23.33° C | 25% | 1007.6 hPa | 0 mm | - | - | - |
| 1777825773 | 23.33° C | 25% | 1007.6 hPa | 0 mm | - | - | - |
| 1777824737 | 21.67° C | 27% | 1007.8 hPa | 0 mm | - | - | - |
| 1777822173 | 20° C | 34% | 1007.9 hPa | 0 mm | - | - | - |
| 1777820538 | 18.89° C | 35% | 1008 hPa | 0 mm | - | - | - |
| 1777820237 | 18.89° C | 35% | 1008.1 hPa | 0 mm | - | - | - |
| 1777819938 | 18.89° C | 35% | 1008.1 hPa | 0 mm | - | - | - |
| 1777817538 | 16.67° C | 39% | 1008.5 hPa | 0 mm | - | - | - |
| 1777816037 | 14.44° C | 41% | 1008 hPa | 0 mm | - | - | - |
| 1777807937 | 9.44° C | 48% | 1007.1 hPa | 0 mm | - | - | - |
| 1777807337 | 10° C | 48% | 1007.2 hPa | 0 mm | - | - | - |
| 1777804038 | 8.89° C | 52% | 1007.6 hPa | 0 mm | - | - | - |
| 1777803437 | 8.89° C | 51% | 1007.7 hPa | 0 mm | - | - | - |
| 1777802536 | 9.44° C | 50% | 1008 hPa | 0 mm | - | - | - |
| 1777802237 | 9.44° C | 50% | 1008.1 hPa | 0 mm | - | - | - |
| 1777801037 | 9.44° C | 50% | 1008.1 hPa | 0 mm | - | - | - |
| 1777800738 | 10° C | 50% | 1008.2 hPa | 0 mm | - | - | - |
| 1777800303 | 10° C | 49% | 1008.2 hPa | 0 mm | - | - | - |
| 1777800138 | 10° C | 48% | 1008.3 hPa | 0 mm | - | - | - |
| 1777799703 | 10.56° C | 47% | 1008.4 hPa | 0 mm | - | - | - |
| 1777799403 | 10.56° C | 47% | 1008.4 hPa | 0 mm | - | - | - |
| 1777799237 | 10.56° C | 47% | 1008.4 hPa | 0 mm | - | - | - |
| 1777798803 | 11.11° C | 47% | 1008.5 hPa | 0 mm | - | - | - |
* Rain latest hour (hover to see other rain measurements)
** Current wind speed in m/s (hover to see current wind gust speed)